sensor_id;sensor_type;location;lat;lon;timestamp;temperature;humidity
578;DHT22;275;48.492;9.214;2022-12-18T00:02:15;-5.70;30.00
578;DHT22;275;48.492;9.214;2022-12-18T00:04:42;-5.40;30.00
578;DHT22;275;48.492;9.214;2022-12-18T00:07:09;-5.30;29.10
578;DHT22;275;48.492;9.214;2022-12-18T00:09:36;-5.30;29.30
578;DHT22;275;48.492;9.214;2022-12-18T00:12:04;-5.60;29.60
578;DHT22;275;48.492;9.214;2022-12-18T00:14:31;-5.40;29.70
578;DHT22;275;48.492;9.214;2022-12-18T00:16:58;-5.50;29.60
578;DHT22;275;48.492;9.214;2022-12-18T00:19:26;-5.40;29.50
578;DHT22;275;48.492;9.214;2022-12-18T00:21:53;-5.50;29.40
578;DHT22;275;48.492;9.214;2022-12-18T00:24:20;-5.80;29.70
578;DHT22;275;48.492;9.214;2022-12-18T00:26:47;-5.80;30.70
578;DHT22;275;48.492;9.214;2022-12-18T00:29:15;-5.50;29.60
578;DHT22;275;48.492;9.214;2022-12-18T00:31:42;-5.70;29.20
578;DHT22;275;48.492;9.214;2022-12-18T00:34:10;-5.60;29.20
578;DHT22;275;48.492;9.214;2022-12-18T00:36:40;-5.80;29.10
578;DHT22;275;48.492;9.214;2022-12-18T00:39:07;-6.20;29.30
578;DHT22;275;48.492;9.214;2022-12-18T00:41:34;-6.20;29.60
578;DHT22;275;48.492;9.214;2022-12-18T00:44:20;-6.20;29.50
578;DHT22;275;48.492;9.214;2022-12-18T00:46:47;-6.20;29.60
578;DHT22;275;48.492;9.214;2022-12-18T00:49:15;-6.00;29.00
578;DHT22;275;48.492;9.214;2022-12-18T00:51:42;-6.10;28.70
578;DHT22;275;48.492;9.214;2022-12-18T00:54:10;-6.30;28.50
578;DHT22;275;48.492;9.214;2022-12-18T00:56:37;-6.40;29.30
578;DHT22;275;48.492;9.214;2022-12-18T00:59:04;-6.30;29.30
578;DHT22;275;48.492;9.214;2022-12-18T01:01:33;-6.50;29.40
578;DHT22;275;48.492;9.214;2022-12-18T01:04:00;-6.30;29.60
578;DHT22;275;48.492;9.214;2022-12-18T01:06:27;-6.00;29.00
578;DHT22;275;48.492;9.214;2022-12-18T01:08:54;-5.90;28.70
578;DHT22;275;48.492;9.214;2022-12-18T01:11:21;-6.10;28.40
578;DHT22;275;48.492;9.214;2022-12-18T01:13:49;-6.20;28.70
578;DHT22;275;48.492;9.214;2022-12-18T01:16:17;-6.20;28.50
578;DHT22;275;48.492;9.214;2022-12-18T01:18:45;-6.30;28.50
578;DHT22;275;48.492;9.214;2022-12-18T01:21:14;-6.40;28.70
578;DHT22;275;48.492;9.214;2022-12-18T01:23:44;-6.50;28.90
578;DHT22;275;48.492;9.214;2022-12-18T01:26:13;-6.40;28.80
578;DHT22;275;48.492;9.214;2022-12-18T01:28:40;-6.30;29.00
578;DHT22;275;48.492;9.214;2022-12-18T01:31:12;-6.40;28.50
578;DHT22;275;48.492;9.214;2022-12-18T01:33:39;-6.70;29.10
578;DHT22;275;48.492;9.214;2022-12-18T01:36:07;-6.90;29.50
578;DHT22;275;48.492;9.214;2022-12-18T01:38:34;-6.70;29.70
578;DHT22;275;48.492;9.214;2022-12-18T01:41:01;-6.20;28.80
578;DHT22;275;48.492;9.214;2022-12-18T01:43:45;-6.40;29.00
578;DHT22;275;48.492;9.214;2022-12-18T01:46:13;-6.50;29.40
578;DHT22;275;48.492;9.214;2022-12-18T01:48:41;-6.30;29.00
578;DHT22;275;48.492;9.214;2022-12-18T01:51:11;-6.10;29.30
578;DHT22;275;48.492;9.214;2022-12-18T01:53:42;-6.10;29.20
578;DHT22;275;48.492;9.214;2022-12-18T01:56:13;-6.00;28.50
578;DHT22;275;48.492;9.214;2022-12-18T01:58:46;-6.20;28.80
578;DHT22;275;48.492;9.214;2022-12-18T02:01:15;-6.20;29.00
578;DHT22;275;48.492;9.214;2022-12-18T02:03:43;-6.20;29.00
578;DHT22;275;48.492;9.214;2022-12-18T02:06:14;-6.40;29.50
578;DHT22;275;48.492;9.214;2022-12-18T02:08:50;-6.10;29.60
578;DHT22;275;48.492;9.214;2022-12-18T02:11:29;-6.00;28.70
578;DHT22;275;48.492;9.214;2022-12-18T02:14:04;-6.00;28.60
578;DHT22;275;48.492;9.214;2022-12-18T02:16:38;-6.20;28.60
578;DHT22;275;48.492;9.214;2022-12-18T02:19:18;-6.20;28.90
578;DHT22;275;48.492;9.214;2022-12-18T02:21:54;-6.10;28.70
578;DHT22;275;48.492;9.214;2022-12-18T02:24:29;-6.10;28.70
578;DHT22;275;48.492;9.214;2022-12-18T02:27:03;-6.10;28.30
578;DHT22;275;48.492;9.214;2022-12-18T02:29:34;-6.10;28.40
578;DHT22;275;48.492;9.214;2022-12-18T02:32:06;-6.00;28.20
578;DHT22;275;48.492;9.214;2022-12-18T02:34:38;-6.20;28.40
578;DHT22;275;48.492;9.214;2022-12-18T02:37:07;-6.20;28.70
578;DHT22;275;48.492;9.214;2022-12-18T02:39:37;-6.20;28.60
578;DHT22;275;48.492;9.214;2022-12-18T02:42:06;-6.00;28.20
578;DHT22;275;48.492;9.214;2022-12-18T02:44:33;-6.10;28.10
578;DHT22;275;48.492;9.214;2022-12-18T02:47:01;-6.00;28.20
578;DHT22;275;48.492;9.214;2022-12-18T02:49:34;-6.40;28.40
578;DHT22;275;48.492;9.214;2022-12-18T02:52:07;-6.80;28.80
578;DHT22;275;48.492;9.214;2022-12-18T02:54:49;-6.80;29.00
578;DHT22;275;48.492;9.214;2022-12-18T02:57:24;-6.40;28.70
578;DHT22;275;48.492;9.214;2022-12-18T03:00:00;-6.40;28.40
578;DHT22;275;48.492;9.214;2022-12-18T03:02:33;-6.40;28.60
578;DHT22;275;48.492;9.214;2022-12-18T03:05:05;-6.80;29.50
578;DHT22;275;48.492;9.214;2022-12-18T03:07:37;-6.90;29.70
578;DHT22;275;48.492;9.214;2022-12-18T03:10:07;-7.00;30.10
578;DHT22;275;48.492;9.214;2022-12-18T03:12:39;-7.10;30.50
578;DHT22;275;48.492;9.214;2022-12-18T03:15:10;-7.20;30.60
578;DHT22;275;48.492;9.214;2022-12-18T03:17:41;-6.90;30.80
578;DHT22;275;48.492;9.214;2022-12-18T03:20:13;-6.90;29.70
578;DHT22;275;48.492;9.214;2022-12-18T03:22:42;-6.60;29.90
578;DHT22;275;48.492;9.214;2022-12-18T03:25:13;-6.20;29.40
578;DHT22;275;48.492;9.214;2022-12-18T03:27:46;-6.10;29.30
578;DHT22;275;48.492;9.214;2022-12-18T03:30:15;-5.90;28.80
578;DHT22;275;48.492;9.214;2022-12-18T03:32:46;-5.70;28.60
578;DHT22;275;48.492;9.214;2022-12-18T03:35:24;-5.60;28.20
578;DHT22;275;48.492;9.214;2022-12-18T03:37:52;-5.70;28.40
578;DHT22;275;48.492;9.214;2022-12-18T03:40:21;-5.80;28.70
578;DHT22;275;48.492;9.214;2022-12-18T03:42:54;-5.90;29.70
578;DHT22;275;48.492;9.214;2022-12-18T03:45:29;-6.00;29.10
578;DHT22;275;48.492;9.214;2022-12-18T03:48:00;-6.20;29.80
578;DHT22;275;48.492;9.214;2022-12-18T03:50:36;-5.70;29.40
578;DHT22;275;48.492;9.214;2022-12-18T03:53:14;-5.90;29.20
578;DHT22;275;48.492;9.214;2022-12-18T03:55:45;-5.90;29.10
578;DHT22;275;48.492;9.214;2022-12-18T03:58:18;-5.80;28.90
578;DHT22;275;48.492;9.214;2022-12-18T04:00:47;-5.60;28.70
578;DHT22;275;48.492;9.214;2022-12-18T04:03:15;-5.80;29.00
578;DHT22;275;48.492;9.214;2022-12-18T04:05:44;-5.80;28.40
578;DHT22;275;48.492;9.214;2022-12-18T04:08:12;-6.10;29.30
578;DHT22;275;48.492;9.214;2022-12-18T04:10:39;-6.00;29.30
578;DHT22;275;48.492;9.214;2022-12-18T04:13:06;-5.90;29.20
578;DHT22;275;48.492;9.214;2022-12-18T04:15:35;-6.10;29.30
578;DHT22;275;48.492;9.214;2022-12-18T04:18:03;-6.20;29.80
578;DHT22;275;48.492;9.214;2022-12-18T04:20:30;-6.10;30.00
578;DHT22;275;48.492;9.214;2022-12-18T04:22:56;-6.10;29.90
578;DHT22;275;48.492;9.214;2022-12-18T04:25:23;-5.80;29.50
578;DHT22;275;48.492;9.214;2022-12-18T04:27:50;-5.80;29.30
578;DHT22;275;48.492;9.214;2022-12-18T04:30:17;-5.80;29.30
578;DHT22;275;48.492;9.214;2022-12-18T04:32:45;-5.60;29.10
578;DHT22;275;48.492;9.214;2022-12-18T04:35:12;-5.60;29.40
578;DHT22;275;48.492;9.214;2022-12-18T04:37:38;-6.00;29.60
578;DHT22;275;48.492;9.214;2022-12-18T04:40:06;-5.90;29.80
578;DHT22;275;48.492;9.214;2022-12-18T04:42:33;-6.20;29.70
578;DHT22;275;48.492;9.214;2022-12-18T04:45:00;-6.20;29.80
578;DHT22;275;48.492;9.214;2022-12-18T04:47:27;-6.00;30.00
578;DHT22;275;48.492;9.214;2022-12-18T04:49:55;-5.60;29.30
578;DHT22;275;48.492;9.214;2022-12-18T04:52:22;-5.40;29.20
578;DHT22;275;48.492;9.214;2022-12-18T04:54:49;-5.50;29.50
578;DHT22;275;48.492;9.214;2022-12-18T04:57:15;-5.50;29.80
578;DHT22;275;48.492;9.214;2022-12-18T04:59:43;-5.80;29.90
578;DHT22;275;48.492;9.214;2022-12-18T05:02:10;-6.50;30.90
578;DHT22;275;48.492;9.214;2022-12-18T05:04:37;-6.60;31.90
578;DHT22;275;48.492;9.214;2022-12-18T05:07:05;-6.40;31.90
578;DHT22;275;48.492;9.214;2022-12-18T05:09:32;-6.20;32.10
578;DHT22;275;48.492;9.214;2022-12-18T05:11:58;-6.10;31.30
578;DHT22;275;48.492;9.214;2022-12-18T05:14:25;-6.10;31.60
578;DHT22;275;48.492;9.214;2022-12-18T05:16:53;-6.20;32.50
578;DHT22;275;48.492;9.214;2022-12-18T05:19:19;-6.00;31.80
578;DHT22;275;48.492;9.214;2022-12-18T05:21:46;-5.80;31.00
578;DHT22;275;48.492;9.214;2022-12-18T05:24:14;-6.00;31.40
578;DHT22;275;48.492;9.214;2022-12-18T05:26:41;-5.80;31.30
578;DHT22;275;48.492;9.214;2022-12-18T05:29:08;-5.70;31.00
578;DHT22;275;48.492;9.214;2022-12-18T05:31:37;-5.70;30.20
578;DHT22;275;48.492;9.214;2022-12-18T05:34:04;-5.70;30.20
578;DHT22;275;48.492;9.214;2022-12-18T05:36:31;-5.80;29.50
578;DHT22;275;48.492;9.214;2022-12-18T05:38:58;-5.90;29.40
578;DHT22;275;48.492;9.214;2022-12-18T05:41:27;-6.00;29.20
578;DHT22;275;48.492;9.214;2022-12-18T05:43:54;-6.10;29.60
578;DHT22;275;48.492;9.214;2022-12-18T05:46:21;-6.10;29.60
578;DHT22;275;48.492;9.214;2022-12-18T05:48:47;-6.00;29.10
578;DHT22;275;48.492;9.214;2022-12-18T05:51:17;-6.20;29.30
578;DHT22;275;48.492;9.214;2022-12-18T05:53:45;-6.00;29.00
578;DHT22;275;48.492;9.214;2022-12-18T05:56:14;-5.90;28.50
578;DHT22;275;48.492;9.214;2022-12-18T05:58:43;-6.00;28.30
578;DHT22;275;48.492;9.214;2022-12-18T06:01:12;-6.10;28.70
578;DHT22;275;48.492;9.214;2022-12-18T06:03:39;-6.60;30.00
578;DHT22;275;48.492;9.214;2022-12-18T06:06:13;-6.60;30.30
578;DHT22;275;48.492;9.214;2022-12-18T06:08:40;-6.90;30.70
578;DHT22;275;48.492;9.214;2022-12-18T06:11:07;-7.10;30.90
578;DHT22;275;48.492;9.214;2022-12-18T06:13:34;-7.50;31.60
578;DHT22;275;48.492;9.214;2022-12-18T06:16:03;-7.20;32.20
578;DHT22;275;48.492;9.214;2022-12-18T06:18:31;-6.70;30.80
578;DHT22;275;48.492;9.214;2022-12-18T06:20:59;-6.50;30.20
578;DHT22;275;48.492;9.214;2022-12-18T06:23:26;-6.40;29.80
578;DHT22;275;48.492;9.214;2022-12-18T06:25:53;-6.30;29.50
578;DHT22;275;48.492;9.214;2022-12-18T06:28:20;-6.10;28.90
578;DHT22;275;48.492;9.214;2022-12-18T06:30:48;-6.20;28.30
578;DHT22;275;48.492;9.214;2022-12-18T06:33:16;-6.50;28.90
578;DHT22;275;48.492;9.214;2022-12-18T06:35:43;-6.40;28.80
578;DHT22;275;48.492;9.214;2022-12-18T06:38:10;-6.40;28.70
578;DHT22;275;48.492;9.214;2022-12-18T06:40:37;-6.70;28.50
578;DHT22;275;48.492;9.214;2022-12-18T06:43:05;-8.00;30.00
578;DHT22;275;48.492;9.214;2022-12-18T06:45:31;-8.00;31.50
578;DHT22;275;48.492;9.214;2022-12-18T06:47:58;-8.70;34.50
578;DHT22;275;48.492;9.214;2022-12-18T06:50:26;-8.70;36.10
578;DHT22;275;48.492;9.214;2022-12-18T06:52:53;-8.10;35.00
578;DHT22;275;48.492;9.214;2022-12-18T06:55:20;-7.40;33.70
578;DHT22;275;48.492;9.214;2022-12-18T06:57:47;-6.90;32.60
578;DHT22;275;48.492;9.214;2022-12-18T07:00:14;-6.50;30.80
578;DHT22;275;48.492;9.214;2022-12-18T07:02:41;-6.50;30.50
578;DHT22;275;48.492;9.214;2022-12-18T07:05:08;-6.50;30.40
578;DHT22;275;48.492;9.214;2022-12-18T07:07:36;-6.20;29.90
578;DHT22;275;48.492;9.214;2022-12-18T07:10:04;-6.10;29.20
578;DHT22;275;48.492;9.214;2022-12-18T07:12:31;-6.10;29.00
578;DHT22;275;48.492;9.214;2022-12-18T07:14:58;-6.30;28.70
578;DHT22;275;48.492;9.214;2022-12-18T07:17:24;-6.00;29.30
578;DHT22;275;48.492;9.214;2022-12-18T07:19:51;-6.10;28.30
578;DHT22;275;48.492;9.214;2022-12-18T07:22:18;-6.70;29.30
578;DHT22;275;48.492;9.214;2022-12-18T07:24:49;-6.70;29.90
578;DHT22;275;48.492;9.214;2022-12-18T07:27:16;-6.40;29.40
578;DHT22;275;48.492;9.214;2022-12-18T07:29:43;-6.30;28.90
578;DHT22;275;48.492;9.214;2022-12-18T07:32:10;-6.30;28.80
578;DHT22;275;48.492;9.214;2022-12-18T07:34:36;-6.30;28.80
578;DHT22;275;48.492;9.214;2022-12-18T07:37:03;-6.40;28.90
578;DHT22;275;48.492;9.214;2022-12-18T07:39:31;-6.50;28.90
578;DHT22;275;48.492;9.214;2022-12-18T07:41:59;-6.60;28.60
578;DHT22;275;48.492;9.214;2022-12-18T07:44:43;-6.60;28.90
578;DHT22;275;48.492;9.214;2022-12-18T07:47:10;-6.70;29.00
578;DHT22;275;48.492;9.214;2022-12-18T07:49:37;-6.60;29.30
578;DHT22;275;48.492;9.214;2022-12-18T07:52:04;-6.60;29.30
578;DHT22;275;48.492;9.214;2022-12-18T07:54:31;-6.30;29.20
578;DHT22;275;48.492;9.214;2022-12-18T07:56:59;-6.00;28.40
578;DHT22;275;48.492;9.214;2022-12-18T07:59:26;-5.70;28.40
578;DHT22;275;48.492;9.214;2022-12-18T08:01:53;-5.50;28.00
578;DHT22;275;48.492;9.214;2022-12-18T08:04:20;-5.60;27.90
578;DHT22;275;48.492;9.214;2022-12-18T08:06:46;-5.70;27.90
578;DHT22;275;48.492;9.214;2022-12-18T08:09:13;-5.80;28.00
578;DHT22;275;48.492;9.214;2022-12-18T08:11:40;-5.90;27.90
578;DHT22;275;48.492;9.214;2022-12-18T08:14:08;-6.10;27.70
578;DHT22;275;48.492;9.214;2022-12-18T08:16:35;-6.00;28.00
578;DHT22;275;48.492;9.214;2022-12-18T08:19:03;-5.80;27.40
578;DHT22;275;48.492;9.214;2022-12-18T08:21:31;-5.80;27.50
578;DHT22;275;48.492;9.214;2022-12-18T08:24:00;-5.90;27.80
578;DHT22;275;48.492;9.214;2022-12-18T08:26:29;-5.90;28.10
578;DHT22;275;48.492;9.214;2022-12-18T08:28:57;-5.80;27.60
578;DHT22;275;48.492;9.214;2022-12-18T08:31:27;-5.80;27.30
578;DHT22;275;48.492;9.214;2022-12-18T08:33:55;-5.60;27.00
578;DHT22;275;48.492;9.214;2022-12-18T08:36:22;-5.50;26.80
578;DHT22;275;48.492;9.214;2022-12-18T08:38:50;-5.80;26.90
578;DHT22;275;48.492;9.214;2022-12-18T08:41:17;-5.50;26.80
578;DHT22;275;48.492;9.214;2022-12-18T08:43:44;-5.80;27.40
578;DHT22;275;48.492;9.214;2022-12-18T08:46:35;-5.60;27.40
578;DHT22;275;48.492;9.214;2022-12-18T08:49:02;-5.20;26.60
578;DHT22;275;48.492;9.214;2022-12-18T08:51:29;-5.30;26.70
578;DHT22;275;48.492;9.214;2022-12-18T08:53:56;-5.30;26.60
578;DHT22;275;48.492;9.214;2022-12-18T08:56:23;-5.10;26.40
578;DHT22;275;48.492;9.214;2022-12-18T08:58:51;-5.00;26.10
578;DHT22;275;48.492;9.214;2022-12-18T09:01:19;-5.10;26.40
578;DHT22;275;48.492;9.214;2022-12-18T09:03:47;-5.20;26.40
578;DHT22;275;48.492;9.214;2022-12-18T09:06:15;-5.10;26.80
578;DHT22;275;48.492;9.214;2022-12-18T09:08:42;-5.20;27.30
578;DHT22;275;48.492;9.214;2022-12-18T09:11:13;-4.90;27.20
578;DHT22;275;48.492;9.214;2022-12-18T09:13:40;-4.70;26.50
578;DHT22;275;48.492;9.214;2022-12-18T09:16:07;-4.60;26.80
578;DHT22;275;48.492;9.214;2022-12-18T09:18:35;-4.50;26.70
578;DHT22;275;48.492;9.214;2022-12-18T09:21:09;-4.50;26.60
578;DHT22;275;48.492;9.214;2022-12-18T09:23:36;-4.30;26.80
578;DHT22;275;48.492;9.214;2022-12-18T09:26:03;-4.40;27.50
578;DHT22;275;48.492;9.214;2022-12-18T09:28:30;-4.60;27.40
578;DHT22;275;48.492;9.214;2022-12-18T09:30:57;-4.60;27.80
578;DHT22;275;48.492;9.214;2022-12-18T09:33:24;-4.50;27.90
578;DHT22;275;48.492;9.214;2022-12-18T09:35:51;-4.10;27.60
578;DHT22;275;48.492;9.214;2022-12-18T09:38:20;-4.20;28.10
578;DHT22;275;48.492;9.214;2022-12-18T09:40:49;-4.20;28.60
578;DHT22;275;48.492;9.214;2022-12-18T09:43:20;-4.20;28.20
578;DHT22;275;48.492;9.214;2022-12-18T09:45:53;-4.00;28.10
578;DHT22;275;48.492;9.214;2022-12-18T09:48:25;-3.70;28.00
578;DHT22;275;48.492;9.214;2022-12-18T09:50:57;-3.60;28.00
578;DHT22;275;48.492;9.214;2022-12-18T09:53:30;-3.40;28.20
578;DHT22;275;48.492;9.214;2022-12-18T09:55:58;-3.40;28.40
578;DHT22;275;48.492;9.214;2022-12-18T09:58:29;-3.40;28.60
578;DHT22;275;48.492;9.214;2022-12-18T10:00:57;-3.90;29.70
578;DHT22;275;48.492;9.214;2022-12-18T10:03:24;-3.80;29.90
578;DHT22;275;48.492;9.214;2022-12-18T10:06:00;-3.30;29.40
578;DHT22;275;48.492;9.214;2022-12-18T10:08:37;-3.10;29.00
578;DHT22;275;48.492;9.214;2022-12-18T10:11:21;-2.90;29.10
578;DHT22;275;48.492;9.214;2022-12-18T10:13:54;-2.90;29.50
578;DHT22;275;48.492;9.214;2022-12-18T10:16:29;-2.60;29.30
578;DHT22;275;48.492;9.214;2022-12-18T10:19:15;-2.20;28.40
578;DHT22;275;48.492;9.214;2022-12-18T10:21:50;-2.60;29.50
578;DHT22;275;48.492;9.214;2022-12-18T10:24:24;-2.80;31.60
578;DHT22;275;48.492;9.214;2022-12-18T10:26:56;-2.60;32.50
578;DHT22;275;48.492;9.214;2022-12-18T10:29:27;-2.00;30.80
578;DHT22;275;48.492;9.214;2022-12-18T10:31:54;-2.00;28.70
578;DHT22;275;48.492;9.214;2022-12-18T10:34:20;-1.90;28.20
578;DHT22;275;48.492;9.214;2022-12-18T10:36:47;-2.20;29.40
578;DHT22;275;48.492;9.214;2022-12-18T10:39:16;-2.20;30.30
578;DHT22;275;48.492;9.214;2022-12-18T10:41:45;-2.60;32.00
578;DHT22;275;48.492;9.214;2022-12-18T10:44:16;-2.50;33.40
578;DHT22;275;48.492;9.214;2022-12-18T10:46:44;-2.10;33.30
578;DHT22;275;48.492;9.214;2022-12-18T10:49:27;-1.80;33.80
578;DHT22;275;48.492;9.214;2022-12-18T10:52:11;-1.10;33.20
578;DHT22;275;48.492;9.214;2022-12-18T10:54:49;-0.50;34.20
578;DHT22;275;48.492;9.214;2022-12-18T10:57:30;-0.30;33.40
578;DHT22;275;48.492;9.214;2022-12-18T10:59:58;-0.40;34.70
578;DHT22;275;48.492;9.214;2022-12-18T11:02:28;-0.50;34.10
578;DHT22;275;48.492;9.214;2022-12-18T11:05:00;-0.90;34.30
578;DHT22;275;48.492;9.214;2022-12-18T11:07:47;-0.40;33.60
578;DHT22;275;48.492;9.214;2022-12-18T11:10:16;-0.50;32.30
578;DHT22;275;48.492;9.214;2022-12-18T11:12:46;-0.80;33.20
578;DHT22;275;48.492;9.214;2022-12-18T11:15:16;-0.70;33.60
578;DHT22;275;48.492;9.214;2022-12-18T11:17:48;-1.00;33.80
578;DHT22;275;48.492;9.214;2022-12-18T11:20:29;-0.70;33.20
578;DHT22;275;48.492;9.214;2022-12-18T11:22:58;-1.20;33.30
578;DHT22;275;48.492;9.214;2022-12-18T11:25:26;-0.60;32.20
578;DHT22;275;48.492;9.214;2022-12-18T11:27:59;-0.60;31.20
578;DHT22;275;48.492;9.214;2022-12-18T11:30:28;-0.50;31.40
578;DHT22;275;48.492;9.214;2022-12-18T11:33:03;0.10;30.20
578;DHT22;275;48.492;9.214;2022-12-18T11:35:39;0.40;29.30
578;DHT22;275;48.492;9.214;2022-12-18T11:38:16;0.50;29.20
578;DHT22;275;48.492;9.214;2022-12-18T11:40:47;0.10;30.20
578;DHT22;275;48.492;9.214;2022-12-18T11:43:23;0.40;30.00
578;DHT22;275;48.492;9.214;2022-12-18T11:45:54;-0.20;31.60
578;DHT22;275;48.492;9.214;2022-12-18T11:48:24;0.20;31.10
578;DHT22;275;48.492;9.214;2022-12-18T11:50:55;0.60;30.60
578;DHT22;275;48.492;9.214;2022-12-18T11:53:23;0.50;30.90
578;DHT22;275;48.492;9.214;2022-12-18T11:56:02;0.50;31.20
578;DHT22;275;48.492;9.214;2022-12-18T11:58:45;1.00;30.40
578;DHT22;275;48.492;9.214;2022-12-18T12:01:23;1.60;29.30
578;DHT22;275;48.492;9.214;2022-12-18T12:04:08;2.00;28.90
578;DHT22;275;48.492;9.214;2022-12-18T12:06:46;2.30;28.50
578;DHT22;275;48.492;9.214;2022-12-18T12:09:23;2.10;28.60
578;DHT22;275;48.492;9.214;2022-12-18T12:12:03;1.60;29.50
578;DHT22;275;48.492;9.214;2022-12-18T12:14:42;1.90;29.70
578;DHT22;275;48.492;9.214;2022-12-18T12:17:19;2.00;29.20
578;DHT22;275;48.492;9.214;2022-12-18T12:19:53;2.40;28.50
578;DHT22;275;48.492;9.214;2022-12-18T12:22:28;2.50;28.20
578;DHT22;275;48.492;9.214;2022-12-18T12:25:05;2.60;28.00
578;DHT22;275;48.492;9.214;2022-12-18T12:27:41;2.80;27.70
578;DHT22;275;48.492;9.214;2022-12-18T12:30:20;2.80;27.10
578;DHT22;275;48.492;9.214;2022-12-18T12:33:04;2.80;28.10
578;DHT22;275;48.492;9.214;2022-12-18T12:35:44;2.80;27.30
578;DHT22;275;48.492;9.214;2022-12-18T12:38:14;1.60;29.20
578;DHT22;275;48.492;9.214;2022-12-18T12:40:47;1.50;29.50
578;DHT22;275;48.492;9.214;2022-12-18T12:43:22;2.10;28.50
578;DHT22;275;48.492;9.214;2022-12-18T12:45:54;2.20;28.10
578;DHT22;275;48.492;9.214;2022-12-18T12:48:31;1.80;29.30
578;DHT22;275;48.492;9.214;2022-12-18T12:51:01;2.50;28.40
578;DHT22;275;48.492;9.214;2022-12-18T12:53:33;3.00;27.30
578;DHT22;275;48.492;9.214;2022-12-18T12:56:01;3.50;26.00
578;DHT22;275;48.492;9.214;2022-12-18T12:58:34;3.70;26.50
578;DHT22;275;48.492;9.214;2022-12-18T13:01:12;3.60;26.10
578;DHT22;275;48.492;9.214;2022-12-18T13:03:49;2.90;26.80
578;DHT22;275;48.492;9.214;2022-12-18T13:06:27;3.10;26.50
578;DHT22;275;48.492;9.214;2022-12-18T13:08:56;2.30;27.60
578;DHT22;275;48.492;9.214;2022-12-18T13:11:34;2.80;27.20
578;DHT22;275;48.492;9.214;2022-12-18T13:14:26;2.50;27.10
578;DHT22;275;48.492;9.214;2022-12-18T13:17:27;1.80;28.50
578;DHT22;275;48.492;9.214;2022-12-18T13:20:10;2.50;27.70
578;DHT22;275;48.492;9.214;2022-12-18T13:22:40;2.90;26.90
578;DHT22;275;48.492;9.214;2022-12-18T13:25:33;3.20;26.40
578;DHT22;275;48.492;9.214;2022-12-18T13:28:11;3.30;27.30
578;DHT22;275;48.492;9.214;2022-12-18T13:33:42;3.80;26.70
578;DHT22;275;48.492;9.214;2022-12-18T13:36:13;3.90;26.40
578;DHT22;275;48.492;9.214;2022-12-18T13:38:41;4.10;26.50
578;DHT22;275;48.492;9.214;2022-12-18T13:41:26;4.00;27.50
578;DHT22;275;48.492;9.214;2022-12-18T13:43:54;3.90;27.30
578;DHT22;275;48.492;9.214;2022-12-18T13:46:25;4.00;26.80
578;DHT22;275;48.492;9.214;2022-12-18T13:49:00;4.10;26.90
578;DHT22;275;48.492;9.214;2022-12-18T13:51:29;4.00;26.80
578;DHT22;275;48.492;9.214;2022-12-18T13:54:00;4.30;26.50
578;DHT22;275;48.492;9.214;2022-12-18T13:56:29;4.50;26.20
578;DHT22;275;48.492;9.214;2022-12-18T13:59:20;4.80;25.90
578;DHT22;275;48.492;9.214;2022-12-18T14:01:50;4.40;26.20
578;DHT22;275;48.492;9.214;2022-12-18T14:04:26;4.40;26.40
578;DHT22;275;48.492;9.214;2022-12-18T14:06:57;3.80;26.40
578;DHT22;275;48.492;9.214;2022-12-18T14:09:27;3.30;28.10
578;DHT22;275;48.492;9.214;2022-12-18T14:11:55;3.30;27.10
578;DHT22;275;48.492;9.214;2022-12-18T14:14:46;3.00;28.30
578;DHT22;275;48.492;9.214;2022-12-18T14:17:14;2.70;28.50
578;DHT22;275;48.492;9.214;2022-12-18T14:19:45;2.70;28.80
578;DHT22;275;48.492;9.214;2022-12-18T14:22:18;3.10;28.00
578;DHT22;275;48.492;9.214;2022-12-18T14:24:45;3.20;27.80
578;DHT22;275;48.492;9.214;2022-12-18T14:27:22;3.30;27.90
578;DHT22;275;48.492;9.214;2022-12-18T14:29:50;3.00;28.00
578;DHT22;275;48.492;9.214;2022-12-18T14:32:18;2.90;28.60
578;DHT22;275;48.492;9.214;2022-12-18T14:34:48;2.20;29.30
578;DHT22;275;48.492;9.214;2022-12-18T14:37:19;1.80;29.90
578;DHT22;275;48.492;9.214;2022-12-18T14:39:54;1.70;30.30
578;DHT22;275;48.492;9.214;2022-12-18T14:42:22;2.00;29.40
578;DHT22;275;48.492;9.214;2022-12-18T14:45:32;1.40;30.70
578;DHT22;275;48.492;9.214;2022-12-18T14:47:59;1.30;31.10
578;DHT22;275;48.492;9.214;2022-12-18T14:50:28;1.20;31.00
578;DHT22;275;48.492;9.214;2022-12-18T14:52:55;1.40;30.90
578;DHT22;275;48.492;9.214;2022-12-18T14:55:22;1.70;30.20
578;DHT22;275;48.492;9.214;2022-12-18T14:57:51;1.50;30.30
578;DHT22;275;48.492;9.214;2022-12-18T15:00:20;1.40;30.70
578;DHT22;275;48.492;9.214;2022-12-18T15:02:50;0.80;31.70
578;DHT22;275;48.492;9.214;2022-12-18T15:05:21;0.80;32.90
578;DHT22;275;48.492;9.214;2022-12-18T15:07:54;1.20;31.10
578;DHT22;275;48.492;9.214;2022-12-18T15:10:22;1.60;30.00
578;DHT22;275;48.492;9.214;2022-12-18T15:13:05;1.90;29.30
578;DHT22;275;48.492;9.214;2022-12-18T15:15:50;1.90;29.50
578;DHT22;275;48.492;9.214;2022-12-18T15:18:20;1.20;30.20
578;DHT22;275;48.492;9.214;2022-12-18T15:20:49;0.80;31.00
578;DHT22;275;48.492;9.214;2022-12-18T15:23:20;0.70;31.40
578;DHT22;275;48.492;9.214;2022-12-18T15:25:54;1.10;31.10
578;DHT22;275;48.492;9.214;2022-12-18T15:28:26;1.00;30.90
578;DHT22;275;48.492;9.214;2022-12-18T15:31:23;0.50;31.90
578;DHT22;275;48.492;9.214;2022-12-18T15:34:11;-0.10;33.60
578;DHT22;275;48.492;9.214;2022-12-18T15:36:38;0.00;33.80
578;DHT22;275;48.492;9.214;2022-12-18T15:39:11;-0.10;33.40
578;DHT22;275;48.492;9.214;2022-12-18T15:41:38;0.00;33.70
578;DHT22;275;48.492;9.214;2022-12-18T15:44:22;-0.10;33.60
578;DHT22;275;48.492;9.214;2022-12-18T15:46:48;0.00;33.70
578;DHT22;275;48.492;9.214;2022-12-18T15:49:15;-0.20;34.20
578;DHT22;275;48.492;9.214;2022-12-18T15:51:42;-0.30;34.20
578;DHT22;275;48.492;9.214;2022-12-18T15:54:13;-0.20;34.10
578;DHT22;275;48.492;9.214;2022-12-18T15:56:42;-0.20;34.30
578;DHT22;275;48.492;9.214;2022-12-18T15:59:25;-0.20;34.00
578;DHT22;275;48.492;9.214;2022-12-18T16:01:52;-0.30;34.60
578;DHT22;275;48.492;9.214;2022-12-18T16:04:21;-0.30;34.00
578;DHT22;275;48.492;9.214;2022-12-18T16:06:49;-0.40;34.70
578;DHT22;275;48.492;9.214;2022-12-18T16:09:18;-0.30;34.40
578;DHT22;275;48.492;9.214;2022-12-18T16:11:45;-0.30;34.30
578;DHT22;275;48.492;9.214;2022-12-18T16:14:16;-0.50;35.20
578;DHT22;275;48.492;9.214;2022-12-18T16:16:44;-0.60;35.50
578;DHT22;275;48.492;9.214;2022-12-18T16:19:11;-0.40;34.50
578;DHT22;275;48.492;9.214;2022-12-18T16:21:38;-0.30;34.30
578;DHT22;275;48.492;9.214;2022-12-18T16:24:08;-0.10;33.70
578;DHT22;275;48.492;9.214;2022-12-18T16:26:39;-0.40;35.10
578;DHT22;275;48.492;9.214;2022-12-18T16:29:07;-0.20;34.60
578;DHT22;275;48.492;9.214;2022-12-18T16:31:34;-0.40;35.00
578;DHT22;275;48.492;9.214;2022-12-18T16:34:11;-0.10;33.90
578;DHT22;275;48.492;9.214;2022-12-18T16:36:38;-0.10;33.90
578;DHT22;275;48.492;9.214;2022-12-18T16:39:05;-0.10;34.70
578;DHT22;275;48.492;9.214;2022-12-18T16:41:32;-0.30;34.30
578;DHT22;275;48.492;9.214;2022-12-18T16:44:01;-0.20;34.20
578;DHT22;275;48.492;9.214;2022-12-18T16:46:28;-0.60;35.20
578;DHT22;275;48.492;9.214;2022-12-18T16:48:57;-0.60;36.00
578;DHT22;275;48.492;9.214;2022-12-18T16:51:24;-0.40;34.80
578;DHT22;275;48.492;9.214;2022-12-18T16:53:52;-0.20;34.50
578;DHT22;275;48.492;9.214;2022-12-18T16:56:19;-0.20;34.60
578;DHT22;275;48.492;9.214;2022-12-18T16:58:50;0.00;34.10
578;DHT22;275;48.492;9.214;2022-12-18T17:01:19;0.00;34.10
578;DHT22;275;48.492;9.214;2022-12-18T17:03:51;0.30;33.30
578;DHT22;275;48.492;9.214;2022-12-18T17:06:19;0.50;32.30